sensor_id;sensor_type;location;lat;lon;timestamp;P1;durP1;ratioP1;P2;durP2;ratioP2
64678;SDS011;51094;53.864;27.676;2022-10-16T00:01:07;2.20;;;2.20;;
64678;SDS011;51094;53.864;27.676;2022-10-16T00:03:38;1.77;;;1.77;;
64678;SDS011;51094;53.864;27.676;2022-10-16T00:06:05;1.80;;;1.80;;
64678;SDS011;51094;53.864;27.676;2022-10-16T00:08:33;1.80;;;1.80;;
64678;SDS011;51094;53.864;27.676;2022-10-16T00:11:04;1.73;;;1.73;;
64678;SDS011;51094;53.864;27.676;2022-10-16T00:13:37;1.60;;;1.60;;
64678;SDS011;51094;53.864;27.676;2022-10-16T00:16:05;1.70;;;1.70;;
64678;SDS011;51094;53.864;27.676;2022-10-16T00:18:33;1.90;;;1.90;;
64678;SDS011;51094;53.864;27.676;2022-10-16T00:21:04;1.80;;;1.80;;
64678;SDS011;51094;53.864;27.676;2022-10-16T00:23:32;1.70;;;1.70;;
64678;SDS011;51094;53.864;27.676;2022-10-16T00:26:01;1.63;;;1.63;;
64678;SDS011;51094;53.864;27.676;2022-10-16T00:30:56;1.73;;;1.73;;
64678;SDS011;51094;53.864;27.676;2022-10-16T00:33:23;1.90;;;1.90;;
64678;SDS011;51094;53.864;27.676;2022-10-16T00:35:50;1.90;;;1.90;;
64678;SDS011;51094;53.864;27.676;2022-10-16T00:38:17;1.73;;;1.70;;
64678;SDS011;51094;53.864;27.676;2022-10-16T00:40:43;1.80;;;1.80;;
64678;SDS011;51094;53.864;27.676;2022-10-16T00:43:14;1.75;;;1.75;;
64678;SDS011;51094;53.864;27.676;2022-10-16T00:45:59;1.70;;;1.70;;
64678;SDS011;51094;53.864;27.676;2022-10-16T00:48:27;1.80;;;1.80;;
64678;SDS011;51094;53.864;27.676;2022-10-16T00:50:54;1.77;;;1.77;;
64678;SDS011;51094;53.864;27.676;2022-10-16T00:53:23;1.98;;;1.90;;
64678;SDS011;51094;53.864;27.676;2022-10-16T00:55:51;1.70;;;1.70;;
64678;SDS011;51094;53.864;27.676;2022-10-16T00:58:18;1.65;;;1.65;;
64678;SDS011;51094;53.864;27.676;2022-10-16T01:00:45;2.00;;;1.90;;
64678;SDS011;51094;53.864;27.676;2022-10-16T01:05:59;1.80;;;1.80;;
64678;SDS011;51094;53.864;27.676;2022-10-16T01:08:44;1.88;;;1.88;;
64678;SDS011;51094;53.864;27.676;2022-10-16T01:11:35;1.60;;;1.60;;
64678;SDS011;51094;53.864;27.676;2022-10-16T01:14:15;1.70;;;1.70;;
64678;SDS011;51094;53.864;27.676;2022-10-16T01:16:58;1.70;;;1.70;;
64678;SDS011;51094;53.864;27.676;2022-10-16T01:22:25;1.70;;;1.70;;
64678;SDS011;51094;53.864;27.676;2022-10-16T01:24:55;1.70;;;1.70;;
64678;SDS011;51094;53.864;27.676;2022-10-16T01:27:27;1.63;;;1.60;;
64678;SDS011;51094;53.864;27.676;2022-10-16T01:29:59;1.60;;;1.60;;
64678;SDS011;51094;53.864;27.676;2022-10-16T01:33:02;1.70;;;1.70;;
64678;SDS011;51094;53.864;27.676;2022-10-16T01:35:58;1.83;;;1.83;;
64678;SDS011;51094;53.864;27.676;2022-10-16T01:38:36;1.73;;;1.73;;
64678;SDS011;51094;53.864;27.676;2022-10-16T01:41:15;1.65;;;1.65;;
64678;SDS011;51094;53.864;27.676;2022-10-16T01:44:30;1.70;;;1.70;;
64678;SDS011;51094;53.864;27.676;2022-10-16T01:46:46;1.75;;;1.75;;
64678;SDS011;51094;53.864;27.676;2022-10-16T01:49:15;1.52;;;1.52;;
64678;SDS011;51094;53.864;27.676;2022-10-16T01:51:44;2.13;;;2.10;;
64678;SDS011;51094;53.864;27.676;2022-10-16T01:54:15;1.80;;;1.80;;
64678;SDS011;51094;53.864;27.676;2022-10-16T01:56:45;1.80;;;1.80;;
64678;SDS011;51094;53.864;27.676;2022-10-16T01:59:16;2.00;;;2.00;;
64678;SDS011;51094;53.864;27.676;2022-10-16T02:01:50;2.00;;;2.00;;
64678;SDS011;51094;53.864;27.676;2022-10-16T02:04:28;2.03;;;1.92;;
64678;SDS011;51094;53.864;27.676;2022-10-16T02:06:58;1.98;;;1.98;;
64678;SDS011;51094;53.864;27.676;2022-10-16T02:09:25;1.90;;;1.90;;
64678;SDS011;51094;53.864;27.676;2022-10-16T02:11:53;1.85;;;1.85;;
64678;SDS011;51094;53.864;27.676;2022-10-16T02:14:23;1.80;;;1.80;;
64678;SDS011;51094;53.864;27.676;2022-10-16T02:16:51;1.80;;;1.80;;
64678;SDS011;51094;53.864;27.676;2022-10-16T02:19:18;1.80;;;1.80;;
64678;SDS011;51094;53.864;27.676;2022-10-16T02:22:00;1.92;;;1.92;;
64678;SDS011;51094;53.864;27.676;2022-10-16T02:24:32;1.90;;;1.90;;
64678;SDS011;51094;53.864;27.676;2022-10-16T02:30:12;1.80;;;1.80;;
64678;SDS011;51094;53.864;27.676;2022-10-16T02:32:44;1.77;;;1.77;;
64678;SDS011;51094;53.864;27.676;2022-10-16T02:35:17;1.77;;;1.77;;
64678;SDS011;51094;53.864;27.676;2022-10-16T02:37:48;1.90;;;1.90;;
64678;SDS011;51094;53.864;27.676;2022-10-16T02:40:16;1.98;;;1.98;;
64678;SDS011;51094;53.864;27.676;2022-10-16T02:42:50;1.85;;;1.85;;
64678;SDS011;51094;53.864;27.676;2022-10-16T02:45:18;1.88;;;1.88;;
64678;SDS011;51094;53.864;27.676;2022-10-16T02:47:45;1.75;;;1.75;;
64678;SDS011;51094;53.864;27.676;2022-10-16T02:50:12;1.92;;;1.92;;
64678;SDS011;51094;53.864;27.676;2022-10-16T02:52:39;2.05;;;2.05;;
64678;SDS011;51094;53.864;27.676;2022-10-16T02:55:06;2.00;;;2.00;;
64678;SDS011;51094;53.864;27.676;2022-10-16T02:57:32;2.22;;;2.20;;
64678;SDS011;51094;53.864;27.676;2022-10-16T02:59:59;2.00;;;2.00;;
64678;SDS011;51094;53.864;27.676;2022-10-16T03:02:26;2.33;;;2.33;;
64678;SDS011;51094;53.864;27.676;2022-10-16T03:04:53;1.98;;;1.98;;
64678;SDS011;51094;53.864;27.676;2022-10-16T03:07:19;2.17;;;2.17;;
64678;SDS011;51094;53.864;27.676;2022-10-16T03:09:46;1.88;;;1.88;;
64678;SDS011;51094;53.864;27.676;2022-10-16T03:12:13;1.90;;;1.90;;
64678;SDS011;51094;53.864;27.676;2022-10-16T03:14:39;2.00;;;2.00;;
64678;SDS011;51094;53.864;27.676;2022-10-16T03:17:06;2.10;;;2.00;;
64678;SDS011;51094;53.864;27.676;2022-10-16T03:19:33;1.80;;;1.80;;
64678;SDS011;51094;53.864;27.676;2022-10-16T03:22:01;1.83;;;1.83;;
64678;SDS011;51094;53.864;27.676;2022-10-16T03:24:28;2.30;;;2.30;;
64678;SDS011;51094;53.864;27.676;2022-10-16T03:26:54;2.10;;;2.10;;
64678;SDS011;51094;53.864;27.676;2022-10-16T03:29:21;2.17;;;2.17;;
64678;SDS011;51094;53.864;27.676;2022-10-16T03:31:48;2.50;;;2.45;;
64678;SDS011;51094;53.864;27.676;2022-10-16T03:34:15;1.98;;;1.98;;
64678;SDS011;51094;53.864;27.676;2022-10-16T03:36:42;2.15;;;2.05;;
64678;SDS011;51094;53.864;27.676;2022-10-16T03:39:09;2.20;;;2.20;;
64678;SDS011;51094;53.864;27.676;2022-10-16T03:41:35;1.88;;;1.88;;
64678;SDS011;51094;53.864;27.676;2022-10-16T03:44:02;1.90;;;1.90;;
64678;SDS011;51094;53.864;27.676;2022-10-16T03:46:29;1.90;;;1.90;;
64678;SDS011;51094;53.864;27.676;2022-10-16T03:48:55;2.20;;;2.10;;
64678;SDS011;51094;53.864;27.676;2022-10-16T03:51:22;2.20;;;2.20;;
64678;SDS011;51094;53.864;27.676;2022-10-16T03:53:49;2.08;;;2.03;;
64678;SDS011;51094;53.864;27.676;2022-10-16T03:56:15;2.17;;;2.17;;
64678;SDS011;51094;53.864;27.676;2022-10-16T03:58:43;2.13;;;2.13;;
64678;SDS011;51094;53.864;27.676;2022-10-16T04:01:10;2.08;;;2.08;;
64678;SDS011;51094;53.864;27.676;2022-10-16T04:03:36;2.17;;;2.17;;
64678;SDS011;51094;53.864;27.676;2022-10-16T04:06:03;2.10;;;2.10;;
64678;SDS011;51094;53.864;27.676;2022-10-16T04:08:30;2.30;;;2.30;;
64678;SDS011;51094;53.864;27.676;2022-10-16T04:10:57;2.10;;;2.10;;
64678;SDS011;51094;53.864;27.676;2022-10-16T04:13:23;1.73;;;1.73;;
64678;SDS011;51094;53.864;27.676;2022-10-16T04:15:50;1.95;;;1.95;;
64678;SDS011;51094;53.864;27.676;2022-10-16T04:18:17;2.00;;;2.00;;
64678;SDS011;51094;53.864;27.676;2022-10-16T04:20:43;2.25;;;2.22;;
64678;SDS011;51094;53.864;27.676;2022-10-16T04:23:10;2.03;;;2.03;;
64678;SDS011;51094;53.864;27.676;2022-10-16T04:25:37;2.13;;;2.13;;
64678;SDS011;51094;53.864;27.676;2022-10-16T04:28:03;2.50;;;2.40;;
64678;SDS011;51094;53.864;27.676;2022-10-16T04:30:30;1.95;;;1.95;;
64678;SDS011;51094;53.864;27.676;2022-10-16T04:32:57;2.38;;;2.38;;
64678;SDS011;51094;53.864;27.676;2022-10-16T04:35:23;2.00;;;2.00;;
64678;SDS011;51094;53.864;27.676;2022-10-16T04:37:50;1.90;;;1.90;;
64678;SDS011;51094;53.864;27.676;2022-10-16T04:40:17;2.17;;;2.17;;
64678;SDS011;51094;53.864;27.676;2022-10-16T04:42:44;2.42;;;2.33;;
64678;SDS011;51094;53.864;27.676;2022-10-16T04:45:10;2.22;;;2.22;;
64678;SDS011;51094;53.864;27.676;2022-10-16T04:47:42;2.20;;;2.20;;
64678;SDS011;51094;53.864;27.676;2022-10-16T04:50:09;1.98;;;1.98;;
64678;SDS011;51094;53.864;27.676;2022-10-16T04:52:36;2.10;;;2.10;;
64678;SDS011;51094;53.864;27.676;2022-10-16T04:55:03;2.05;;;2.05;;
64678;SDS011;51094;53.864;27.676;2022-10-16T04:57:30;2.13;;;2.13;;
64678;SDS011;51094;53.864;27.676;2022-10-16T04:59:56;1.90;;;1.90;;
64678;SDS011;51094;53.864;27.676;2022-10-16T05:02:23;2.40;;;2.30;;
64678;SDS011;51094;53.864;27.676;2022-10-16T05:04:50;2.00;;;2.00;;
64678;SDS011;51094;53.864;27.676;2022-10-16T05:07:20;2.10;;;2.10;;
64678;SDS011;51094;53.864;27.676;2022-10-16T05:09:47;2.53;;;2.42;;
64678;SDS011;51094;53.864;27.676;2022-10-16T05:12:13;2.38;;;2.30;;
64678;SDS011;51094;53.864;27.676;2022-10-16T05:14:40;2.03;;;2.03;;
64678;SDS011;51094;53.864;27.676;2022-10-16T05:17:08;2.42;;;2.42;;
64678;SDS011;51094;53.864;27.676;2022-10-16T05:19:35;2.20;;;2.20;;
64678;SDS011;51094;53.864;27.676;2022-10-16T05:22:02;2.33;;;2.22;;
64678;SDS011;51094;53.864;27.676;2022-10-16T05:24:29;2.60;;;2.60;;
64678;SDS011;51094;53.864;27.676;2022-10-16T05:26:55;2.10;;;2.10;;
64678;SDS011;51094;53.864;27.676;2022-10-16T05:29:22;2.60;;;2.50;;
64678;SDS011;51094;53.864;27.676;2022-10-16T05:31:50;2.13;;;2.13;;
64678;SDS011;51094;53.864;27.676;2022-10-16T05:34:18;2.28;;;2.28;;
64678;SDS011;51094;53.864;27.676;2022-10-16T05:36:46;2.30;;;2.30;;
64678;SDS011;51094;53.864;27.676;2022-10-16T05:39:13;2.50;;;2.40;;
64678;SDS011;51094;53.864;27.676;2022-10-16T05:41:42;2.33;;;2.33;;
64678;SDS011;51094;53.864;27.676;2022-10-16T05:44:11;2.35;;;2.35;;
64678;SDS011;51094;53.864;27.676;2022-10-16T05:46:38;2.60;;;2.58;;
64678;SDS011;51094;53.864;27.676;2022-10-16T05:49:05;2.40;;;2.40;;
64678;SDS011;51094;53.864;27.676;2022-10-16T05:51:32;2.30;;;2.30;;
64678;SDS011;51094;53.864;27.676;2022-10-16T05:53:58;2.30;;;2.30;;
64678;SDS011;51094;53.864;27.676;2022-10-16T05:56:25;2.28;;;2.22;;
64678;SDS011;51094;53.864;27.676;2022-10-16T05:58:52;2.30;;;2.30;;
64678;SDS011;51094;53.864;27.676;2022-10-16T06:01:19;2.20;;;2.20;;
64678;SDS011;51094;53.864;27.676;2022-10-16T06:03:47;2.13;;;2.13;;
64678;SDS011;51094;53.864;27.676;2022-10-16T06:06:18;2.40;;;2.30;;
64678;SDS011;51094;53.864;27.676;2022-10-16T06:08:49;2.45;;;2.45;;
64678;SDS011;51094;53.864;27.676;2022-10-16T06:11:17;2.53;;;2.45;;
64678;SDS011;51094;53.864;27.676;2022-10-16T06:13:49;2.38;;;2.38;;
64678;SDS011;51094;53.864;27.676;2022-10-16T06:16:19;2.83;;;2.72;;
64678;SDS011;51094;53.864;27.676;2022-10-16T06:18:46;2.53;;;2.50;;
64678;SDS011;51094;53.864;27.676;2022-10-16T06:21:14;2.42;;;2.42;;
64678;SDS011;51094;53.864;27.676;2022-10-16T06:23:49;2.38;;;2.38;;
64678;SDS011;51094;53.864;27.676;2022-10-16T06:26:20;2.63;;;2.53;;
64678;SDS011;51094;53.864;27.676;2022-10-16T06:28:50;2.20;;;2.20;;
64678;SDS011;51094;53.864;27.676;2022-10-16T06:31:17;2.42;;;2.40;;
64678;SDS011;51094;53.864;27.676;2022-10-16T06:33:44;2.70;;;2.60;;
64678;SDS011;51094;53.864;27.676;2022-10-16T06:36:14;2.60;;;2.50;;
64678;SDS011;51094;53.864;27.676;2022-10-16T06:38:42;2.58;;;2.47;;
64678;SDS011;51094;53.864;27.676;2022-10-16T06:41:13;2.47;;;2.38;;
64678;SDS011;51094;53.864;27.676;2022-10-16T06:43:45;2.10;;;2.10;;
64678;SDS011;51094;53.864;27.676;2022-10-16T06:46:13;2.50;;;2.50;;
64678;SDS011;51094;53.864;27.676;2022-10-16T06:48:42;2.30;;;2.30;;
64678;SDS011;51094;53.864;27.676;2022-10-16T06:51:13;2.72;;;2.72;;
64678;SDS011;51094;53.864;27.676;2022-10-16T06:53:48;2.20;;;2.20;;
64678;SDS011;51094;53.864;27.676;2022-10-16T06:56:32;2.10;;;2.10;;
64678;SDS011;51094;53.864;27.676;2022-10-16T06:58:59;1.90;;;1.90;;
64678;SDS011;51094;53.864;27.676;2022-10-16T07:01:27;2.35;;;2.35;;
64678;SDS011;51094;53.864;27.676;2022-10-16T07:03:54;2.47;;;2.47;;
64678;SDS011;51094;53.864;27.676;2022-10-16T07:06:22;2.28;;;2.28;;
64678;SDS011;51094;53.864;27.676;2022-10-16T07:08:50;2.20;;;2.20;;
64678;SDS011;51094;53.864;27.676;2022-10-16T07:11:19;2.10;;;2.10;;
64678;SDS011;51094;53.864;27.676;2022-10-16T07:13:47;2.20;;;2.20;;
64678;SDS011;51094;53.864;27.676;2022-10-16T07:16:28;2.10;;;2.10;;
64678;SDS011;51094;53.864;27.676;2022-10-16T07:18:59;2.80;;;2.70;;
64678;SDS011;51094;53.864;27.676;2022-10-16T07:21:32;2.40;;;2.40;;
64678;SDS011;51094;53.864;27.676;2022-10-16T07:24:06;2.33;;;2.33;;
64678;SDS011;51094;53.864;27.676;2022-10-16T07:26:37;1.98;;;1.98;;
64678;SDS011;51094;53.864;27.676;2022-10-16T07:29:07;2.20;;;2.10;;
64678;SDS011;51094;53.864;27.676;2022-10-16T07:31:44;2.10;;;2.10;;
64678;SDS011;51094;53.864;27.676;2022-10-16T07:34:12;2.25;;;2.25;;
64678;SDS011;51094;53.864;27.676;2022-10-16T07:36:40;2.30;;;2.30;;
64678;SDS011;51094;53.864;27.676;2022-10-16T07:39:08;2.25;;;2.25;;
64678;SDS011;51094;53.864;27.676;2022-10-16T07:41:35;2.38;;;2.38;;
64678;SDS011;51094;53.864;27.676;2022-10-16T07:44:03;2.38;;;2.38;;
64678;SDS011;51094;53.864;27.676;2022-10-16T07:46:30;2.38;;;2.38;;
64678;SDS011;51094;53.864;27.676;2022-10-16T07:48:59;2.42;;;2.40;;
64678;SDS011;51094;53.864;27.676;2022-10-16T07:51:26;3.20;;;3.10;;
64678;SDS011;51094;53.864;27.676;2022-10-16T07:53:54;2.58;;;2.47;;
64678;SDS011;51094;53.864;27.676;2022-10-16T07:56:21;2.40;;;2.40;;
64678;SDS011;51094;53.864;27.676;2022-10-16T07:58:49;2.42;;;2.33;;
64678;SDS011;51094;53.864;27.676;2022-10-16T08:01:17;2.40;;;2.40;;
64678;SDS011;51094;53.864;27.676;2022-10-16T08:03:45;2.20;;;2.20;;
64678;SDS011;51094;53.864;27.676;2022-10-16T08:06:13;2.80;;;2.72;;
64678;SDS011;51094;53.864;27.676;2022-10-16T08:08:40;2.40;;;2.40;;
64678;SDS011;51094;53.864;27.676;2022-10-16T08:11:07;2.35;;;2.35;;
64678;SDS011;51094;53.864;27.676;2022-10-16T08:13:35;2.80;;;2.70;;
64678;SDS011;51094;53.864;27.676;2022-10-16T08:16:01;3.13;;;3.03;;
64678;SDS011;51094;53.864;27.676;2022-10-16T08:18:34;2.70;;;2.70;;
64678;SDS011;51094;53.864;27.676;2022-10-16T08:21:05;2.95;;;2.90;;
64678;SDS011;51094;53.864;27.676;2022-10-16T08:23:33;2.50;;;2.50;;
64678;SDS011;51094;53.864;27.676;2022-10-16T08:26:04;2.40;;;2.40;;
64678;SDS011;51094;53.864;27.676;2022-10-16T08:28:33;2.33;;;2.33;;
64678;SDS011;51094;53.864;27.676;2022-10-16T08:33:38;2.40;;;2.40;;
64678;SDS011;51094;53.864;27.676;2022-10-16T08:36:06;2.55;;;2.55;;
64678;SDS011;51094;53.864;27.676;2022-10-16T08:38:34;3.30;;;3.20;;
64678;SDS011;51094;53.864;27.676;2022-10-16T08:47:00;2.90;;;2.80;;
64678;SDS011;51094;53.864;27.676;2022-10-16T08:49:34;2.60;;;2.60;;
64678;SDS011;51094;53.864;27.676;2022-10-16T08:52:02;2.63;;;2.60;;
64678;SDS011;51094;53.864;27.676;2022-10-16T08:54:36;2.80;;;2.70;;
64678;SDS011;51094;53.864;27.676;2022-10-16T08:57:12;2.60;;;2.60;;
64678;SDS011;51094;53.864;27.676;2022-10-16T08:59:49;3.30;;;3.20;;
64678;SDS011;51094;53.864;27.676;2022-10-16T09:02:31;3.00;;;2.90;;
64678;SDS011;51094;53.864;27.676;2022-10-16T09:08:01;2.70;;;2.70;;
64678;SDS011;51094;53.864;27.676;2022-10-16T09:13:27;3.00;;;2.90;;
64678;SDS011;51094;53.864;27.676;2022-10-16T09:18:58;2.90;;;2.90;;
64678;SDS011;51094;53.864;27.676;2022-10-16T09:21:31;3.17;;;3.08;;
64678;SDS011;51094;53.864;27.676;2022-10-16T09:24:13;2.63;;;2.63;;
64678;SDS011;51094;53.864;27.676;2022-10-16T09:26:42;2.70;;;2.60;;
64678;SDS011;51094;53.864;27.676;2022-10-16T09:29:11;2.42;;;2.33;;
64678;SDS011;51094;53.864;27.676;2022-10-16T09:31:42;2.75;;;2.65;;
64678;SDS011;51094;53.864;27.676;2022-10-16T09:34:32;2.58;;;2.47;;
64678;SDS011;51094;53.864;27.676;2022-10-16T09:36:59;2.53;;;2.47;;
64678;SDS011;51094;53.864;27.676;2022-10-16T09:39:30;2.70;;;2.70;;
64678;SDS011;51094;53.864;27.676;2022-10-16T09:41:56;2.90;;;2.80;;
64678;SDS011;51094;53.864;27.676;2022-10-16T09:44:25;3.00;;;2.90;;
64678;SDS011;51094;53.864;27.676;2022-10-16T09:47:04;2.72;;;2.70;;
64678;SDS011;51094;53.864;27.676;2022-10-16T09:49:57;2.88;;;2.78;;
64678;SDS011;51094;53.864;27.676;2022-10-16T09:52:28;2.90;;;2.80;;
64678;SDS011;51094;53.864;27.676;2022-10-16T09:55:00;3.00;;;2.90;;
64678;SDS011;51094;53.864;27.676;2022-10-16T09:57:48;2.65;;;2.65;;
64678;SDS011;51094;53.864;27.676;2022-10-16T10:02:45;3.10;;;3.00;;
64678;SDS011;51094;53.864;27.676;2022-10-16T10:05:34;2.60;;;2.50;;
64678;SDS011;51094;53.864;27.676;2022-10-16T10:08:03;2.70;;;2.60;;
64678;SDS011;51094;53.864;27.676;2022-10-16T10:10:41;2.70;;;2.60;;
64678;SDS011;51094;53.864;27.676;2022-10-16T10:13:17;2.40;;;2.40;;
64678;SDS011;51094;53.864;27.676;2022-10-16T10:15:48;2.70;;;2.60;;
64678;SDS011;51094;53.864;27.676;2022-10-16T10:18:16;2.38;;;2.38;;
64678;SDS011;51094;53.864;27.676;2022-10-16T10:20:46;2.35;;;2.35;;
64678;SDS011;51094;53.864;27.676;2022-10-16T10:23:24;2.58;;;2.47;;
64678;SDS011;51094;53.864;27.676;2022-10-16T10:26:13;2.50;;;2.40;;
64678;SDS011;51094;53.864;27.676;2022-10-16T10:31:50;2.13;;;2.13;;
64678;SDS011;51094;53.864;27.676;2022-10-16T10:34:33;2.10;;;2.10;;
64678;SDS011;51094;53.864;27.676;2022-10-16T10:37:16;2.30;;;2.30;;
64678;SDS011;51094;53.864;27.676;2022-10-16T10:39:48;2.00;;;2.00;;
64678;SDS011;51094;53.864;27.676;2022-10-16T10:45:22;2.30;;;2.20;;
64678;SDS011;51094;53.864;27.676;2022-10-16T10:50:45;2.20;;;2.20;;
64678;SDS011;51094;53.864;27.676;2022-10-16T10:59:07;1.90;;;1.90;;
64678;SDS011;51094;53.864;27.676;2022-10-16T11:01:54;2.10;;;2.10;;
64678;SDS011;51094;53.864;27.676;2022-10-16T11:04:33;2.50;;;2.50;;
64678;SDS011;51094;53.864;27.676;2022-10-16T11:07:22;2.17;;;2.17;;
64678;SDS011;51094;53.864;27.676;2022-10-16T11:09:53;2.20;;;2.20;;
64678;SDS011;51094;53.864;27.676;2022-10-16T11:12:27;2.33;;;2.30;;
64678;SDS011;51094;53.864;27.676;2022-10-16T11:15:00;2.17;;;2.17;;
64678;SDS011;51094;53.864;27.676;2022-10-16T11:17:41;2.30;;;2.30;;
64678;SDS011;51094;53.864;27.676;2022-10-16T11:20:21;1.98;;;1.95;;
64678;SDS011;51094;53.864;27.676;2022-10-16T11:25:36;2.08;;;2.00;;
64678;SDS011;51094;53.864;27.676;2022-10-16T11:30:34;2.17;;;2.17;;
64678;SDS011;51094;53.864;27.676;2022-10-16T11:38:35;2.00;;;1.90;;
64678;SDS011;51094;53.864;27.676;2022-10-16T11:41:12;2.00;;;2.00;;
64678;SDS011;51094;53.864;27.676;2022-10-16T11:43:51;1.85;;;1.85;;
64678;SDS011;51094;53.864;27.676;2022-10-16T11:46:28;2.05;;;2.00;;
64678;SDS011;51094;53.864;27.676;2022-10-16T11:51:45;2.10;;;2.10;;
64678;SDS011;51094;53.864;27.676;2022-10-16T11:54:32;1.90;;;1.90;;
64678;SDS011;51094;53.864;27.676;2022-10-16T11:57:18;2.20;;;2.10;;
64678;SDS011;51094;53.864;27.676;2022-10-16T11:59:51;1.90;;;1.90;;
64678;SDS011;51094;53.864;27.676;2022-10-16T12:06:01;1.90;;;1.90;;
64678;SDS011;51094;53.864;27.676;2022-10-16T12:08:46;2.00;;;1.90;;
64678;SDS011;51094;53.864;27.676;2022-10-16T12:14:03;1.85;;;1.75;;
64678;SDS011;51094;53.864;27.676;2022-10-16T12:16:30;2.00;;;1.90;;
64678;SDS011;51094;53.864;27.676;2022-10-16T12:19:09;1.90;;;1.90;;
64678;SDS011;51094;53.864;27.676;2022-10-16T12:21:39;2.30;;;2.30;;
64678;SDS011;51094;53.864;27.676;2022-10-16T12:24:06;2.03;;;2.03;;
64678;SDS011;51094;53.864;27.676;2022-10-16T12:27:06;2.10;;;2.10;;
64678;SDS011;51094;53.864;27.676;2022-10-16T12:29:46;2.20;;;2.20;;
64678;SDS011;51094;53.864;27.676;2022-10-16T12:32:28;2.03;;;2.00;;
64678;SDS011;51094;53.864;27.676;2022-10-16T12:35:22;2.10;;;2.10;;
64678;SDS011;51094;53.864;27.676;2022-10-16T12:40:26;2.10;;;2.10;;
64678;SDS011;51094;53.864;27.676;2022-10-16T12:42:56;2.22;;;2.20;;
64678;SDS011;51094;53.864;27.676;2022-10-16T12:45:24;2.00;;;2.00;;
64678;SDS011;51094;53.864;27.676;2022-10-16T12:47:55;2.10;;;2.10;;
64678;SDS011;51094;53.864;27.676;2022-10-16T12:50:29;2.20;;;2.20;;
64678;SDS011;51094;53.864;27.676;2022-10-16T12:53:16;2.17;;;2.13;;
64678;SDS011;51094;53.864;27.676;2022-10-16T12:55:49;1.67;;;1.67;;
64678;SDS011;51094;53.864;27.676;2022-10-16T12:58:42;1.73;;;1.70;;
64678;SDS011;51094;53.864;27.676;2022-10-16T13:04:02;1.90;;;1.90;;
64678;SDS011;51094;53.864;27.676;2022-10-16T13:09:23;2.30;;;2.30;;
64678;SDS011;51094;53.864;27.676;2022-10-16T13:12:17;2.00;;;2.00;;
64678;SDS011;51094;53.864;27.676;2022-10-16T13:15:18;1.80;;;1.80;;
64678;SDS011;51094;53.864;27.676;2022-10-16T13:17:52;1.80;;;1.70;;
64678;SDS011;51094;53.864;27.676;2022-10-16T13:28:28;1.98;;;1.98;;
64678;SDS011;51094;53.864;27.676;2022-10-16T13:30:58;1.50;;;1.50;;
64678;SDS011;51094;53.864;27.676;2022-10-16T13:33:36;1.90;;;1.80;;
64678;SDS011;51094;53.864;27.676;2022-10-16T13:36:06;1.80;;;1.80;;
64678;SDS011;51094;53.864;27.676;2022-10-16T13:38:34;1.60;;;1.60;;
64678;SDS011;51094;53.864;27.676;2022-10-16T13:41:05;1.50;;;1.50;;
64678;SDS011;51094;53.864;27.676;2022-10-16T13:43:41;1.70;;;1.70;;
64678;SDS011;51094;53.864;27.676;2022-10-16T13:46:12;1.33;;;1.33;;
64678;SDS011;51094;53.864;27.676;2022-10-16T13:48:41;1.58;;;1.58;;
64678;SDS011;51094;53.864;27.676;2022-10-16T13:51:15;1.40;;;1.40;;
64678;SDS011;51094;53.864;27.676;2022-10-16T13:53:43;1.40;;;1.40;;
64678;SDS011;51094;53.864;27.676;2022-10-16T13:56:12;1.20;;;1.20;;
64678;SDS011;51094;53.864;27.676;2022-10-16T13:58:41;1.17;;;1.17;;
64678;SDS011;51094;53.864;27.676;2022-10-16T14:03:45;1.30;;;1.30;;
64678;SDS011;51094;53.864;27.676;2022-10-16T14:06:14;1.40;;;1.40;;
64678;SDS011;51094;53.864;27.676;2022-10-16T14:08:45;1.30;;;1.30;;
64678;SDS011;51094;53.864;27.676;2022-10-16T14:13:47;3.25;;;3.20;;
64678;SDS011;51094;53.864;27.676;2022-10-16T14:16:18;1.40;;;1.40;;
64678;SDS011;51094;53.864;27.676;2022-10-16T14:19:01;1.50;;;1.50;;
64678;SDS011;51094;53.864;27.676;2022-10-16T14:21:31;1.60;;;1.60;;
64678;SDS011;51094;53.864;27.676;2022-10-16T14:24:09;1.40;;;1.40;;
64678;SDS011;51094;53.864;27.676;2022-10-16T14:26:44;1.38;;;1.38;;
64678;SDS011;51094;53.864;27.676;2022-10-16T14:29:19;1.50;;;1.50;;
64678;SDS011;51094;53.864;27.676;2022-10-16T14:32:00;1.42;;;1.42;;
64678;SDS011;51094;53.864;27.676;2022-10-16T14:34:32;1.55;;;1.55;;
64678;SDS011;51094;53.864;27.676;2022-10-16T14:39:54;1.50;;;1.50;;
64678;SDS011;51094;53.864;27.676;2022-10-16T14:42:23;1.50;;;1.50;;
64678;SDS011;51094;53.864;27.676;2022-10-16T14:44:52;1.42;;;1.42;;
64678;SDS011;51094;53.864;27.676;2022-10-16T14:47:21;1.60;;;1.60;;
64678;SDS011;51094;53.864;27.676;2022-10-16T14:49:53;1.50;;;1.50;;
64678;SDS011;51094;53.864;27.676;2022-10-16T14:52:25;1.50;;;1.50;;
64678;SDS011;51094;53.864;27.676;2022-10-16T14:54:52;1.30;;;1.30;;
64678;SDS011;51094;53.864;27.676;2022-10-16T14:57:23;1.40;;;1.40;;
64678;SDS011;51094;53.864;27.676;2022-10-16T14:59:54;1.60;;;1.60;;
64678;SDS011;51094;53.864;27.676;2022-10-16T15:04:48;1.58;;;1.58;;
64678;SDS011;51094;53.864;27.676;2022-10-16T15:07:16;1.70;;;1.70;;
64678;SDS011;51094;53.864;27.676;2022-10-16T15:09:42;1.60;;;1.60;;
64678;SDS011;51094;53.864;27.676;2022-10-16T15:12:14;1.75;;;1.75;;
64678;SDS011;51094;53.864;27.676;2022-10-16T15:14:42;1.52;;;1.52;;
64678;SDS011;51094;53.864;27.676;2022-10-16T15:17:10;1.80;;;1.80;;
64678;SDS011;51094;53.864;27.676;2022-10-16T15:19:37;1.65;;;1.65;;
64678;SDS011;51094;53.864;27.676;2022-10-16T15:22:04;1.75;;;1.75;;
64678;SDS011;51094;53.864;27.676;2022-10-16T15:24:32;1.75;;;1.75;;
64678;SDS011;51094;53.864;27.676;2022-10-16T15:26:58;1.60;;;1.60;;
64678;SDS011;51094;53.864;27.676;2022-10-16T15:29:26;1.70;;;1.70;;
64678;SDS011;51094;53.864;27.676;2022-10-16T15:31:52;1.58;;;1.58;;
64678;SDS011;51094;53.864;27.676;2022-10-16T15:34:19;1.50;;;1.50;;
64678;SDS011;51094;53.864;27.676;2022-10-16T15:36:46;1.70;;;1.70;;
64678;SDS011;51094;53.864;27.676;2022-10-16T15:39:13;1.70;;;1.70;;
64678;SDS011;51094;53.864;27.676;2022-10-16T15:41:42;1.77;;;1.77;;
64678;SDS011;51094;53.864;27.676;2022-10-16T15:44:11;1.70;;;1.70;;
64678;SDS011;51094;53.864;27.676;2022-10-16T15:46:37;2.08;;;1.98;;
64678;SDS011;51094;53.864;27.676;2022-10-16T15:49:04;1.65;;;1.65;;
64678;SDS011;51094;53.864;27.676;2022-10-16T15:51:31;1.75;;;1.75;;
64678;SDS011;51094;53.864;27.676;2022-10-16T15:54:00;1.70;;;1.70;;
64678;SDS011;51094;53.864;27.676;2022-10-16T15:56:28;1.67;;;1.67;;
64678;SDS011;51094;53.864;27.676;2022-10-16T15:58:59;1.85;;;1.75;;
64678;SDS011;51094;53.864;27.676;2022-10-16T16:01:28;1.88;;;1.88;;
64678;SDS011;51094;53.864;27.676;2022-10-16T16:03:58;1.60;;;1.60;;
64678;SDS011;51094;53.864;27.676;2022-10-16T16:06:26;1.73;;;1.73;;
64678;SDS011;51094;53.864;27.676;2022-10-16T16:08:53;1.70;;;1.70;;
64678;SDS011;51094;53.864;27.676;2022-10-16T16:11:20;1.88;;;1.88;;
64678;SDS011;51094;53.864;27.676;2022-10-16T16:13:49;1.70;;;1.70;;
64678;SDS011;51094;53.864;27.676;2022-10-16T16:16:16;1.60;;;1.60;;
64678;SDS011;51094;53.864;27.676;2022-10-16T16:18:43;1.50;;;1.50;;
64678;SDS011;51094;53.864;27.676;2022-10-16T16:21:10;1.70;;;1.70;;
64678;SDS011;51094;53.864;27.676;2022-10-16T16:23:38;1.80;;;1.80;;
64678;SDS011;51094;53.864;27.676;2022-10-16T16:26:10;1.52;;;1.52;;
64678;SDS011;51094;53.864;27.676;2022-10-16T16:28:37;1.45;;;1.45;;